• Join FlightAware (Why Join?)
  • Login
  • US Flag 
01:28AM EDT


 

Airport Tracker/Info


-or-


 

Live Flight TrackerFlight Track Log ✈ AAL994 ✈ 06-May-2014 ✈ MNMG / MGA - KMIA

Flight Track Log - Related Links

Times and Time Zones

All times are in EDT time to prevent confusion due to time zone crossing. See the AAL994 flight status page for this flight to view local times or setup timezone preferences in your user account.

Time Position Orientation Groundspeed Altitude Reporting Facility
EDT Latitude Longitude Course Direction KTS MPH feet Rate Location/Type
09:34AM 13.7694 -85.5160 20° North  Level Estimated
09:35AM 13.8720 -85.4773 20° North  Level FlightAware Approximate
09:36AM 13.9736 -85.4362 21° North  Level Estimated
09:37AM 14.0754 -85.3954 21° North  Level FlightAware Approximate
09:38AM 14.1772 -85.3545 21° North  Level FlightAware Approximate
09:39AM 14.2790 -85.3137 21° North  Level FlightAware Approximate
09:40AM 14.3808 -85.2728 21° North  Level FlightAware Approximate
09:41AM 14.4826 -85.2318 21° North  Level FlightAware Approximate
09:42AM 14.5843 -85.1908 21° North  Level FlightAware Approximate
09:43AM 14.6861 -85.1498 21° North  Level FlightAware Approximate
09:44AM 14.7879 -85.1088 21° North  Level FlightAware Approximate
09:45AM 14.8896 -85.0677 21° North  Level FlightAware Approximate
09:46AM 14.9912 -85.0262 21° North  Level Estimated
09:47AM 15.0931 -84.9854 21° North  Level FlightAware Approximate
09:48AM 15.1949 -84.9445 21° North  Level FlightAware Approximate
09:49AM 15.2968 -84.9037 21° North  Level FlightAware Approximate
09:50AM 15.3986 -84.8627 21° North  Level FlightAware Approximate
09:51AM 15.5005 -84.8218 21° North  Level FlightAware Approximate
09:52AM 15.6023 -84.7808 21° North  Level FlightAware Approximate
09:53AM 15.7041 -84.7398 21° North  Level FlightAware Approximate
09:54AM 15.8059 -84.6987 21° North  Level FlightAware Approximate
09:55AM 15.9078 -84.6576 21° North  Level FlightAware Approximate
09:56AM 16.0096 -84.6164 21° North  Level FlightAware Approximate
09:57AM 16.1113 -84.5752 21° North  Level FlightAware Approximate
09:58AM 16.2131 -84.5340 21° North  Level FlightAware Approximate
09:59AM 16.3149 -84.4927 21° North  Level FlightAware Approximate
10:00AM 16.4167 -84.4513 21° North  Level FlightAware Approximate
10:01AM 16.5184 -84.4100 21° North  Level FlightAware Approximate
10:02AM 16.6202 -84.3685 21° North  Level FlightAware Approximate
10:03AM 16.7220 -84.3271 21° North  Level FlightAware Approximate
10:04AM 16.8237 -84.2856 21° North  Level FlightAware Approximate
10:05AM 16.9254 -84.2440 21° North  Level FlightAware Approximate
10:06AM 17.0271 -84.2024 21° North  Level FlightAware Approximate
10:07AM 17.1289 -84.1608 21° North  Level FlightAware Approximate
10:08AM 17.2306 -84.1191 21° North  Level FlightAware Approximate
10:09AM 17.3323 -84.0774 21° North  Level FlightAware Approximate
10:10AM 17.4339 -84.0356 21° North  Level FlightAware Approximate
10:11AM 17.5356 -83.9938 21° North  Level FlightAware Approximate
10:12AM 17.6373 -83.9519 21° North  Level FlightAware Approximate
10:13AM 17.7390 -83.9100 21° North  Level FlightAware Approximate
10:14AM 17.8406 -83.8680 21° North  Level FlightAware Approximate
10:15AM 17.9422 -83.8260 21° North  Level FlightAware Approximate
10:16AM 18.0439 -83.7839 21° North  Level FlightAware Approximate
10:17AM 18.1455 -83.7418 21° North  Level FlightAware Approximate
10:18AM 18.2471 -83.6997 22° Northeast  Level FlightAware Approximate
10:19AM 18.3487 -83.6575 22° Northeast  Level FlightAware Approximate
10:20AM 18.4499 -83.6141 21° North  Level Estimated
10:21AM 18.5517 -83.5723 21° North  Level FlightAware Approximate
10:22AM 18.6535 -83.5305 21° North  Level FlightAware Approximate
10:23AM 18.7552 -83.4886 21° North  Level FlightAware Approximate
10:24AM 18.8570 -83.4467 21° North  Level FlightAware Approximate
10:25AM 18.9587 -83.4047 21° North  Level FlightAware Approximate
10:26AM 19.0605 -83.3627 21° North  Level FlightAware Approximate
10:27AM 19.1622 -83.3206 21° North  Level FlightAware Approximate
10:28AM 19.2639 -83.2785 21° North  Level FlightAware Approximate
10:29AM 19.3657 -83.2363 21° North  Level FlightAware Approximate
10:30AM 19.4674 -83.1941 21° North  Level FlightAware Approximate
10:31AM 19.5690 -83.1518 21° North  Level FlightAware Approximate
10:32AM 19.6707 -83.1094 21° North  Level FlightAware Approximate
10:33AM 19.7717 -83.0651 22° Northeast  Level Estimated
10:34AM 19.8731 -83.0221 22° Northeast  Level FlightAware Approximate
10:35AM 19.9746 -82.9791 22° Northeast  Level FlightAware Approximate
10:36AM 20.0760 -82.9360 22° Northeast  Level FlightAware Approximate
10:37AM 20.1775 -82.8929 22° Northeast  Level FlightAware Approximate
10:38AM 20.2783 -82.8482 22° Northeast  Level Estimated
10:39AM 20.3795 -82.8043 22° Northeast  Level FlightAware Approximate
10:40AM 20.4807 -82.7604 22° Northeast  Level FlightAware Approximate
10:41AM 20.5819 -82.7165 22° Northeast  Level FlightAware Approximate
10:42AM 20.6830 -82.6725 22° Northeast  Level FlightAware Approximate
10:43AM 20.7842 -82.6284 22° Northeast  Level FlightAware Approximate
10:44AM 20.8853 -82.5843 22° Northeast  Level FlightAware Approximate
10:45AM 20.9864 -82.5401 22° Northeast  Level FlightAware Approximate
10:46AM 21.0875 -82.4958 22° Northeast  Level FlightAware Approximate
10:47AM 21.1887 -82.4515 22° Northeast  Level FlightAware Approximate
10:48AM 21.2897 -82.4072 22° Northeast  Level FlightAware Approximate
10:49AM 21.3908 -82.3627 22° Northeast  Level FlightAware Approximate
10:50AM 21.4919 -82.3183 22° Northeast  Level FlightAware Approximate
10:51AM 21.5925 -82.2725 22° Northeast  Level Estimated
10:52AM 21.6938 -82.2287 22° Northeast  Level FlightAware Approximate
10:53AM 21.7952 -82.1849 22° Northeast  Level FlightAware Approximate
10:54AM 21.8965 -82.1410 22° Northeast  Level FlightAware Approximate
10:55AM 21.9979 -82.0970 22° Northeast  Level FlightAware Approximate
10:56AM 22.0992 -82.0530 22° Northeast  Level FlightAware Approximate
10:56AM 22.8097 -81.5881 22° Northeast 421 484 38,000  Level Miami Center
10:57AM 22.2005 -82.0089 22° Northeast  Level FlightAware Approximate
10:57AM 22.9222 -81.5519 16° North 421 484 38,000  Level Miami Center
10:58AM 22.3018 -81.9648 22° Northeast  Level FlightAware Approximate
10:58AM 23.0328 -81.5203 15° North 419 482 38,000  Level Miami Center
10:59AM 22.4031 -81.9206 22° Northeast  Level FlightAware Approximate
10:59AM 23.1678 -81.4783 16° North 419 482 38,000  Level Miami Center
11:00AM 22.5043 -81.8763 22° Northeast  Level FlightAware Approximate
11:00AM 23.2786 -81.4419 17° North 419 482 38,000  Level Miami Center
11:01AM 22.6056 -81.8320 22° Northeast  Level FlightAware Approximate
11:01AM 23.3911 -81.4083 15° North 419 482 38,000  Level Miami Center
11:02AM 23.5033 -81.3725 16° North 419 482 38,000 -300 Level Miami Center
11:03AM 23.6156 -81.3367 16° North 419 482 37,400 -840 Descending Miami Center
11:04AM 23.7506 -81.2944 16° North 419 482 36,300 -720 Descending Miami Center
11:06AM 23.8656 -81.2586 16° North 423 487 36,000 -180 Descending Miami Center
11:07AM 23.9811 -81.2219 16° North 428 493 36,000  Level Miami Center
11:08AM 24.0992 -81.1975 11° North 430 495 36,000  Level Miami Center
11:09AM 24.2161 -81.1731 11° North 430 495 36,000 -960 Level Miami Center
11:10AM 24.3547 -81.1453 10° North 426 490 34,100 -2,400 Descending Miami Center
11:11AM 24.4706 -81.1228 10° North 425 489 31,100 -2,700 Descending Miami Center
11:12AM 24.5883 -81.0994 10° North 428 493 28,600 -2,400 Descending Miami Center
11:13AM 24.7058 -81.0758 10° North 429 494 26,200 -2,280 Descending Miami Center
11:14AM 24.8231 -81.0525 10° North 429 494 23,900 -2,400 Descending Miami Center
11:15AM 24.9561 -81.0250 11° North 407 468 21,200 -2,340 Descending Miami Center
11:16AM 25.0644 -81.0050 North 399 459 19,100 -2,040 Descending Miami Center
11:17AM 25.1667 -80.9847 10° North 382 440 17,100 -2,040 Descending Miami Center
11:18AM 25.2675 -80.9631 11° North 374 430 14,900 -2,100 Descending Miami Center
11:19AM 25.3653 -80.9436 10° North 361 415 12,800 -2,220 Descending Miami Center
11:20AM 25.4783 -80.9225 10° North 353 406 10,400 -1,920 Descending Miami Center
11:20AM 25.5139 -80.9150 11° North 343 395 10,200 -780 Descending Miami Center
11:21AM 25.5639 -80.8875 26° Northeast 303 349 9,600 -1,020 Descending Miami Center
11:21AM 25.5736 -80.8692 60° Northeast 287 330 9,300 -1,380 Descending Miami Center
11:22AM 25.6033 -80.8106 61° Northeast 291 335 8,200 -1,380 Descending Miami Center
11:22AM 25.6122 -80.7939 59° Northeast 284 327 7,900 -1,500 Descending Miami Center
11:23AM 25.6458 -80.7328 59° Northeast 276 318 6,700 -1,380 Descending Miami Center
11:23AM 25.6506 -80.7206 67° East 266 306 6,500 -1,200 Descending Miami Center
11:24AM 25.6864 -80.6542 59° Northeast 252 290 5,300 -1,020 Descending Miami Center
11:25AM 25.7194 -80.5967 57° Northeast 240 276 4,600 -660 Descending Miami Center
11:26AM 25.7500 -80.5372 60° Northeast 225 259 4,100 -840 Descending Miami Center
11:27AM 25.7817 -80.4725 61° Northeast 224 258 2,900 -1,200 Descending Miami Center
11:28AM 25.7825 -80.4028 89° East 188 216 1,600 -1,020 Descending Miami Center
11:29AM 25.7847 -80.3553 87° East 163 188 800 -780 Descending Miami Center
11:30AM 25.7858 -80.3150 88° East 144 166 100 -720 Descending Miami Center